sensor_id;sensor_type;location;lat;lon;timestamp;P1;durP1;ratioP1;P2;durP2;ratioP2
40322;SDS011;26030;51.164;17.100;2023-05-07T00:04:16;4.30;;;4.00;;
40322;SDS011;26030;51.164;17.100;2023-05-07T00:09:21;4.70;;;4.30;;
40322;SDS011;26030;51.164;17.100;2023-05-07T00:14:25;4.10;;;3.80;;
40322;SDS011;26030;51.164;17.100;2023-05-07T00:19:29;4.40;;;4.10;;
40322;SDS011;26030;51.164;17.100;2023-05-07T00:24:34;4.50;;;4.10;;
40322;SDS011;26030;51.164;17.100;2023-05-07T00:29:38;4.80;;;4.40;;
40322;SDS011;26030;51.164;17.100;2023-05-07T00:34:43;3.70;;;3.40;;
40322;SDS011;26030;51.164;17.100;2023-05-07T00:39:47;4.10;;;3.70;;
40322;SDS011;26030;51.164;17.100;2023-05-07T00:44:53;4.20;;;3.90;;
40322;SDS011;26030;51.164;17.100;2023-05-07T00:49:57;4.00;;;3.70;;
40322;SDS011;26030;51.164;17.100;2023-05-07T00:55:04;4.40;;;4.00;;
40322;SDS011;26030;51.164;17.100;2023-05-07T01:00:10;3.70;;;3.50;;
40322;SDS011;26030;51.164;17.100;2023-05-07T01:05:18;4.00;;;3.70;;
40322;SDS011;26030;51.164;17.100;2023-05-07T01:10:24;4.20;;;3.80;;
40322;SDS011;26030;51.164;17.100;2023-05-07T01:15:30;3.80;;;3.50;;
40322;SDS011;26030;51.164;17.100;2023-05-07T01:20:34;3.50;;;3.30;;
40322;SDS011;26030;51.164;17.100;2023-05-07T01:25:38;4.10;;;3.70;;
40322;SDS011;26030;51.164;17.100;2023-05-07T01:30:46;3.60;;;3.40;;
40322;SDS011;26030;51.164;17.100;2023-05-07T01:35:53;3.90;;;3.60;;
40322;SDS011;26030;51.164;17.100;2023-05-07T01:40:58;3.60;;;3.30;;
40322;SDS011;26030;51.164;17.100;2023-05-07T01:46:02;3.40;;;3.20;;
40322;SDS011;26030;51.164;17.100;2023-05-07T01:51:08;3.60;;;3.30;;
40322;SDS011;26030;51.164;17.100;2023-05-07T01:56:13;3.50;;;3.30;;
40322;SDS011;26030;51.164;17.100;2023-05-07T02:01:17;3.70;;;2.90;;
40322;SDS011;26030;51.164;17.100;2023-05-07T02:06:22;3.50;;;3.30;;
40322;SDS011;26030;51.164;17.100;2023-05-07T02:11:30;3.10;;;2.90;;
40322;SDS011;26030;51.164;17.100;2023-05-07T02:16:34;3.80;;;3.40;;
40322;SDS011;26030;51.164;17.100;2023-05-07T02:21:38;3.50;;;3.30;;
40322;SDS011;26030;51.164;17.100;2023-05-07T02:26:43;3.20;;;3.00;;
40322;SDS011;26030;51.164;17.100;2023-05-07T02:31:47;3.10;;;2.90;;
40322;SDS011;26030;51.164;17.100;2023-05-07T02:36:56;3.10;;;2.90;;
40322;SDS011;26030;51.164;17.100;2023-05-07T02:42:01;3.00;;;2.80;;
40322;SDS011;26030;51.164;17.100;2023-05-07T02:47:06;3.10;;;2.90;;
40322;SDS011;26030;51.164;17.100;2023-05-07T02:52:13;2.80;;;2.60;;
40322;SDS011;26030;51.164;17.100;2023-05-07T02:57:17;3.10;;;2.90;;
40322;SDS011;26030;51.164;17.100;2023-05-07T03:02:22;3.20;;;2.90;;
40322;SDS011;26030;51.164;17.100;2023-05-07T03:07:26;2.90;;;2.70;;
40322;SDS011;26030;51.164;17.100;2023-05-07T03:12:30;3.10;;;2.90;;
40322;SDS011;26030;51.164;17.100;2023-05-07T03:17:35;2.90;;;2.70;;
40322;SDS011;26030;51.164;17.100;2023-05-07T03:22:40;3.20;;;3.00;;
40322;SDS011;26030;51.164;17.100;2023-05-07T03:27:44;3.00;;;2.80;;
40322;SDS011;26030;51.164;17.100;2023-05-07T03:32:49;3.10;;;2.90;;
40322;SDS011;26030;51.164;17.100;2023-05-07T03:37:54;2.80;;;2.60;;
40322;SDS011;26030;51.164;17.100;2023-05-07T03:43:00;3.00;;;2.80;;
40322;SDS011;26030;51.164;17.100;2023-05-07T03:48:05;3.10;;;2.90;;
40322;SDS011;26030;51.164;17.100;2023-05-07T03:53:10;3.30;;;3.10;;
40322;SDS011;26030;51.164;17.100;2023-05-07T03:58:15;2.90;;;2.70;;
40322;SDS011;26030;51.164;17.100;2023-05-07T04:03:20;2.50;;;2.40;;
40322;SDS011;26030;51.164;17.100;2023-05-07T04:08:24;3.00;;;2.80;;
40322;SDS011;26030;51.164;17.100;2023-05-07T04:13:30;3.10;;;2.90;;
40322;SDS011;26030;51.164;17.100;2023-05-07T04:18:35;3.10;;;2.80;;
40322;SDS011;26030;51.164;17.100;2023-05-07T04:23:40;3.10;;;2.90;;
40322;SDS011;26030;51.164;17.100;2023-05-07T04:28:46;3.20;;;3.00;;
40322;SDS011;26030;51.164;17.100;2023-05-07T04:33:51;3.10;;;2.90;;
40322;SDS011;26030;51.164;17.100;2023-05-07T04:38:55;3.00;;;2.80;;
40322;SDS011;26030;51.164;17.100;2023-05-07T04:44:00;3.00;;;2.80;;
40322;SDS011;26030;51.164;17.100;2023-05-07T04:49:05;2.80;;;2.60;;
40322;SDS011;26030;51.164;17.100;2023-05-07T04:54:10;3.00;;;2.80;;
40322;SDS011;26030;51.164;17.100;2023-05-07T04:59:14;3.20;;;3.00;;
40322;SDS011;26030;51.164;17.100;2023-05-07T05:04:18;2.80;;;2.60;;
40322;SDS011;26030;51.164;17.100;2023-05-07T05:09:23;2.80;;;2.60;;
40322;SDS011;26030;51.164;17.100;2023-05-07T05:14:27;2.80;;;2.60;;
40322;SDS011;26030;51.164;17.100;2023-05-07T05:19:32;3.00;;;2.80;;
40322;SDS011;26030;51.164;17.100;2023-05-07T05:24:37;3.50;;;3.30;;
40322;SDS011;26030;51.164;17.100;2023-05-07T05:29:41;2.70;;;2.50;;
40322;SDS011;26030;51.164;17.100;2023-05-07T05:34:47;3.30;;;2.70;;
40322;SDS011;26030;51.164;17.100;2023-05-07T05:39:52;3.00;;;2.80;;
40322;SDS011;26030;51.164;17.100;2023-05-07T05:44:58;2.80;;;2.70;;
40322;SDS011;26030;51.164;17.100;2023-05-07T05:50:03;2.30;;;2.20;;
40322;SDS011;26030;51.164;17.100;2023-05-07T05:55:08;2.50;;;2.30;;
40322;SDS011;26030;51.164;17.100;2023-05-07T06:00:14;2.90;;;2.70;;
40322;SDS011;26030;51.164;17.100;2023-05-07T06:05:21;3.00;;;2.80;;
40322;SDS011;26030;51.164;17.100;2023-05-07T06:10:27;2.90;;;2.40;;
40322;SDS011;26030;51.164;17.100;2023-05-07T06:15:32;2.70;;;2.50;;
40322;SDS011;26030;51.164;17.100;2023-05-07T06:20:40;2.50;;;2.40;;
40322;SDS011;26030;51.164;17.100;2023-05-07T06:25:51;3.10;;;2.90;;
40322;SDS011;26030;51.164;17.100;2023-05-07T06:31:17;2.70;;;2.50;;
40322;SDS011;26030;51.164;17.100;2023-05-07T06:36:40;2.20;;;2.10;;
40322;SDS011;26030;51.164;17.100;2023-05-07T06:41:51;2.40;;;2.10;;
40322;SDS011;26030;51.164;17.100;2023-05-07T06:47:02;2.90;;;2.70;;
40322;SDS011;26030;51.164;17.100;2023-05-07T06:52:06;3.00;;;2.80;;
40322;SDS011;26030;51.164;17.100;2023-05-07T06:57:11;2.90;;;2.70;;
40322;SDS011;26030;51.164;17.100;2023-05-07T07:02:15;2.50;;;2.40;;
40322;SDS011;26030;51.164;17.100;2023-05-07T07:07:21;2.80;;;2.60;;
40322;SDS011;26030;51.164;17.100;2023-05-07T07:12:26;2.60;;;2.40;;
40322;SDS011;26030;51.164;17.100;2023-05-07T07:17:32;2.70;;;2.50;;
40322;SDS011;26030;51.164;17.100;2023-05-07T07:22:38;2.60;;;2.50;;
40322;SDS011;26030;51.164;17.100;2023-05-07T07:27:42;2.60;;;2.50;;
40322;SDS011;26030;51.164;17.100;2023-05-07T07:32:48;2.50;;;2.40;;
40322;SDS011;26030;51.164;17.100;2023-05-07T07:37:52;2.60;;;2.50;;
40322;SDS011;26030;51.164;17.100;2023-05-07T07:42:58;2.60;;;2.50;;
40322;SDS011;26030;51.164;17.100;2023-05-07T07:48:04;2.80;;;2.60;;
40322;SDS011;26030;51.164;17.100;2023-05-07T07:53:10;2.90;;;2.70;;
40322;SDS011;26030;51.164;17.100;2023-05-07T07:58:15;2.80;;;2.60;;
40322;SDS011;26030;51.164;17.100;2023-05-07T08:03:19;2.80;;;2.60;;
40322;SDS011;26030;51.164;17.100;2023-05-07T08:08:26;3.30;;;3.00;;
40322;SDS011;26030;51.164;17.100;2023-05-07T08:13:31;2.80;;;2.60;;
40322;SDS011;26030;51.164;17.100;2023-05-07T08:18:35;3.40;;;3.20;;
40322;SDS011;26030;51.164;17.100;2023-05-07T08:23:39;2.70;;;2.50;;
40322;SDS011;26030;51.164;17.100;2023-05-07T08:28:45;2.90;;;2.70;;
40322;SDS011;26030;51.164;17.100;2023-05-07T08:33:50;2.80;;;2.60;;
40322;SDS011;26030;51.164;17.100;2023-05-07T08:38:54;2.80;;;2.70;;
40322;SDS011;26030;51.164;17.100;2023-05-07T08:43:59;2.90;;;2.70;;
40322;SDS011;26030;51.164;17.100;2023-05-07T08:49:04;3.20;;;3.00;;
40322;SDS011;26030;51.164;17.100;2023-05-07T08:54:10;3.20;;;3.00;;
40322;SDS011;26030;51.164;17.100;2023-05-07T08:59:15;3.00;;;2.80;;
40322;SDS011;26030;51.164;17.100;2023-05-07T09:04:20;3.30;;;3.00;;
40322;SDS011;26030;51.164;17.100;2023-05-07T09:09:24;3.50;;;3.20;;
40322;SDS011;26030;51.164;17.100;2023-05-07T09:14:29;3.50;;;3.20;;
40322;SDS011;26030;51.164;17.100;2023-05-07T09:19:36;3.80;;;3.50;;
40322;SDS011;26030;51.164;17.100;2023-05-07T09:24:50;3.70;;;3.40;;
40322;SDS011;26030;51.164;17.100;2023-05-07T09:29:57;3.40;;;3.10;;
40322;SDS011;26030;51.164;17.100;2023-05-07T09:35:01;3.60;;;3.30;;
40322;SDS011;26030;51.164;17.100;2023-05-07T09:40:08;3.40;;;3.20;;
40322;SDS011;26030;51.164;17.100;2023-05-07T09:45:13;3.70;;;3.40;;
40322;SDS011;26030;51.164;17.100;2023-05-07T09:50:19;3.70;;;3.40;;
40322;SDS011;26030;51.164;17.100;2023-05-07T09:55:24;3.70;;;3.40;;
40322;SDS011;26030;51.164;17.100;2023-05-07T10:00:28;3.60;;;3.30;;
40322;SDS011;26030;51.164;17.100;2023-05-07T10:05:37;3.20;;;3.00;;
40322;SDS011;26030;51.164;17.100;2023-05-07T10:10:42;3.60;;;3.40;;
40322;SDS011;26030;51.164;17.100;2023-05-07T10:15:50;3.20;;;3.00;;
40322;SDS011;26030;51.164;17.100;2023-05-07T10:21:07;3.70;;;3.40;;
40322;SDS011;26030;51.164;17.100;2023-05-07T10:26:13;3.60;;;3.40;;
40322;SDS011;26030;51.164;17.100;2023-05-07T10:36:42;3.30;;;3.10;;
40322;SDS011;26030;51.164;17.100;2023-05-07T10:41:48;3.40;;;3.20;;
40322;SDS011;26030;51.164;17.100;2023-05-07T10:47:18;3.50;;;3.20;;
40322;SDS011;26030;51.164;17.100;2023-05-07T10:52:25;3.80;;;3.50;;
40322;SDS011;26030;51.164;17.100;2023-05-07T10:57:36;4.50;;;3.60;;
40322;SDS011;26030;51.164;17.100;2023-05-07T11:08:13;3.70;;;3.50;;
40322;SDS011;26030;51.164;17.100;2023-05-07T11:13:49;3.50;;;3.30;;
40322;SDS011;26030;51.164;17.100;2023-05-07T11:19:14;3.30;;;3.00;;
40322;SDS011;26030;51.164;17.100;2023-05-07T11:24:23;2.90;;;2.70;;
40322;SDS011;26030;51.164;17.100;2023-05-07T11:29:34;3.40;;;3.20;;
40322;SDS011;26030;51.164;17.100;2023-05-07T11:34:42;3.60;;;3.30;;
40322;SDS011;26030;51.164;17.100;2023-05-07T11:39:50;3.10;;;2.80;;
40322;SDS011;26030;51.164;17.100;2023-05-07T11:45:02;3.20;;;2.90;;
40322;SDS011;26030;51.164;17.100;2023-05-07T11:50:07;3.30;;;3.00;;
40322;SDS011;26030;51.164;17.100;2023-05-07T11:55:11;3.30;;;3.10;;
40322;SDS011;26030;51.164;17.100;2023-05-07T12:00:16;3.30;;;3.10;;
40322;SDS011;26030;51.164;17.100;2023-05-07T12:05:20;2.80;;;2.60;;
40322;SDS011;26030;51.164;17.100;2023-05-07T12:10:25;3.50;;;3.20;;
40322;SDS011;26030;51.164;17.100;2023-05-07T12:15:29;3.20;;;3.00;;
40322;SDS011;26030;51.164;17.100;2023-05-07T12:20:35;3.00;;;2.80;;
40322;SDS011;26030;51.164;17.100;2023-05-07T12:25:40;3.30;;;3.10;;
40322;SDS011;26030;51.164;17.100;2023-05-07T12:30:51;3.40;;;3.20;;
40322;SDS011;26030;51.164;17.100;2023-05-07T12:35:56;2.70;;;2.50;;
40322;SDS011;26030;51.164;17.100;2023-05-07T12:41:00;3.00;;;2.80;;
40322;SDS011;26030;51.164;17.100;2023-05-07T12:46:07;3.20;;;3.00;;
40322;SDS011;26030;51.164;17.100;2023-05-07T12:51:12;3.20;;;3.00;;
40322;SDS011;26030;51.164;17.100;2023-05-07T12:56:17;2.70;;;2.50;;
40322;SDS011;26030;51.164;17.100;2023-05-07T13:01:21;2.70;;;2.60;;
40322;SDS011;26030;51.164;17.100;2023-05-07T13:06:27;2.90;;;2.70;;
40322;SDS011;26030;51.164;17.100;2023-05-07T13:11:31;3.00;;;2.80;;
40322;SDS011;26030;51.164;17.100;2023-05-07T13:16:36;3.30;;;3.10;;
40322;SDS011;26030;51.164;17.100;2023-05-07T13:21:40;3.00;;;2.80;;
40322;SDS011;26030;51.164;17.100;2023-05-07T13:26:44;3.50;;;3.30;;
40322;SDS011;26030;51.164;17.100;2023-05-07T13:31:49;3.10;;;2.90;;
40322;SDS011;26030;51.164;17.100;2023-05-07T13:36:53;3.10;;;2.90;;
40322;SDS011;26030;51.164;17.100;2023-05-07T13:41:57;3.20;;;3.00;;
40322;SDS011;26030;51.164;17.100;2023-05-07T13:47:01;3.20;;;3.00;;
40322;SDS011;26030;51.164;17.100;2023-05-07T13:52:05;3.00;;;2.80;;
40322;SDS011;26030;51.164;17.100;2023-05-07T13:57:10;3.00;;;2.80;;
40322;SDS011;26030;51.164;17.100;2023-05-07T14:02:14;3.20;;;3.00;;
40322;SDS011;26030;51.164;17.100;2023-05-07T14:07:19;2.80;;;2.60;;
40322;SDS011;26030;51.164;17.100;2023-05-07T14:12:24;2.60;;;2.40;;
40322;SDS011;26030;51.164;17.100;2023-05-07T14:17:28;2.90;;;2.70;;
40322;SDS011;26030;51.164;17.100;2023-05-07T14:22:33;3.00;;;2.80;;
40322;SDS011;26030;51.164;17.100;2023-05-07T14:27:37;3.00;;;2.80;;
40322;SDS011;26030;51.164;17.100;2023-05-07T14:32:41;3.50;;;3.20;;
40322;SDS011;26030;51.164;17.100;2023-05-07T14:37:46;3.00;;;2.80;;
40322;SDS011;26030;51.164;17.100;2023-05-07T14:42:50;3.40;;;3.20;;
40322;SDS011;26030;51.164;17.100;2023-05-07T14:47:54;3.40;;;3.20;;
40322;SDS011;26030;51.164;17.100;2023-05-07T14:52:59;3.80;;;3.50;;
40322;SDS011;26030;51.164;17.100;2023-05-07T14:58:03;3.40;;;3.20;;
40322;SDS011;26030;51.164;17.100;2023-05-07T15:03:09;3.30;;;3.10;;
40322;SDS011;26030;51.164;17.100;2023-05-07T15:08:16;3.30;;;3.10;;
40322;SDS011;26030;51.164;17.100;2023-05-07T15:13:21;3.30;;;3.10;;
40322;SDS011;26030;51.164;17.100;2023-05-07T15:18:25;3.70;;;3.30;;
40322;SDS011;26030;51.164;17.100;2023-05-07T15:23:30;3.50;;;3.30;;
40322;SDS011;26030;51.164;17.100;2023-05-07T15:28:34;3.10;;;2.90;;
40322;SDS011;26030;51.164;17.100;2023-05-07T15:33:39;3.70;;;3.40;;
40322;SDS011;26030;51.164;17.100;2023-05-07T15:38:44;3.70;;;3.40;;
40322;SDS011;26030;51.164;17.100;2023-05-07T15:43:50;3.70;;;3.50;;
40322;SDS011;26030;51.164;17.100;2023-05-07T15:48:55;3.40;;;3.20;;
40322;SDS011;26030;51.164;17.100;2023-05-07T15:54:00;3.80;;;3.50;;
40322;SDS011;26030;51.164;17.100;2023-05-07T15:59:04;3.40;;;3.20;;
40322;SDS011;26030;51.164;17.100;2023-05-07T16:04:09;3.50;;;3.30;;
40322;SDS011;26030;51.164;17.100;2023-05-07T16:09:13;3.40;;;3.10;;
40322;SDS011;26030;51.164;17.100;2023-05-07T16:14:18;3.50;;;3.20;;
40322;SDS011;26030;51.164;17.100;2023-05-07T16:19:22;2.90;;;2.70;;
40322;SDS011;26030;51.164;17.100;2023-05-07T16:24:28;3.40;;;3.20;;
40322;SDS011;26030;51.164;17.100;2023-05-07T16:29:32;3.20;;;3.00;;
40322;SDS011;26030;51.164;17.100;2023-05-07T16:34:37;3.40;;;3.20;;
40322;SDS011;26030;51.164;17.100;2023-05-07T16:39:41;3.10;;;2.90;;
40322;SDS011;26030;51.164;17.100;2023-05-07T16:44:46;3.40;;;3.20;;
40322;SDS011;26030;51.164;17.100;2023-05-07T16:49:50;2.90;;;2.70;;
40322;SDS011;26030;51.164;17.100;2023-05-07T16:54:55;4.50;;;3.00;;
40322;SDS011;26030;51.164;17.100;2023-05-07T17:00:04;3.10;;;2.90;;
40322;SDS011;26030;51.164;17.100;2023-05-07T17:05:10;4.10;;;2.90;;
40322;SDS011;26030;51.164;17.100;2023-05-07T17:10:15;5.70;;;2.80;;
40322;SDS011;26030;51.164;17.100;2023-05-07T17:15:20;3.70;;;3.20;;
40322;SDS011;26030;51.164;17.100;2023-05-07T17:20:26;3.50;;;3.00;;
40322;SDS011;26030;51.164;17.100;2023-05-07T17:25:31;2.60;;;2.40;;
40322;SDS011;26030;51.164;17.100;2023-05-07T17:30:35;6.00;;;2.90;;
40322;SDS011;26030;51.164;17.100;2023-05-07T17:35:40;6.60;;;3.40;;
40322;SDS011;26030;51.164;17.100;2023-05-07T17:40:44;6.40;;;3.00;;
40322;SDS011;26030;51.164;17.100;2023-05-07T17:45:49;4.30;;;3.10;;
40322;SDS011;26030;51.164;17.100;2023-05-07T17:50:59;4.10;;;2.80;;
40322;SDS011;26030;51.164;17.100;2023-05-07T17:56:04;4.50;;;3.20;;
40322;SDS011;26030;51.164;17.100;2023-05-07T18:01:09;4.30;;;3.60;;
40322;SDS011;26030;51.164;17.100;2023-05-07T18:06:14;4.40;;;2.80;;
40322;SDS011;26030;51.164;17.100;2023-05-07T18:11:22;4.90;;;2.80;;
40322;SDS011;26030;51.164;17.100;2023-05-07T18:16:26;3.30;;;2.70;;
40322;SDS011;26030;51.164;17.100;2023-05-07T18:21:31;3.10;;;2.70;;
40322;SDS011;26030;51.164;17.100;2023-05-07T18:26:37;3.60;;;2.80;;
40322;SDS011;26030;51.164;17.100;2023-05-07T18:31:43;6.80;;;3.30;;
40322;SDS011;26030;51.164;17.100;2023-05-07T18:36:47;3.70;;;2.90;;
40322;SDS011;26030;51.164;17.100;2023-05-07T18:41:53;6.90;;;3.00;;
40322;SDS011;26030;51.164;17.100;2023-05-07T18:46:59;5.20;;;2.90;;
40322;SDS011;26030;51.164;17.100;2023-05-07T18:52:05;5.30;;;3.40;;
40322;SDS011;26030;51.164;17.100;2023-05-07T18:57:10;7.40;;;3.40;;
40322;SDS011;26030;51.164;17.100;2023-05-07T19:02:14;6.50;;;3.40;;
40322;SDS011;26030;51.164;17.100;2023-05-07T19:07:21;13.20;;;3.40;;
40322;SDS011;26030;51.164;17.100;2023-05-07T19:12:27;10.30;;;3.20;;
40322;SDS011;26030;51.164;17.100;2023-05-07T19:17:33;3.40;;;3.00;;
40322;SDS011;26030;51.164;17.100;2023-05-07T19:22:39;3.10;;;2.90;;
40322;SDS011;26030;51.164;17.100;2023-05-07T19:27:44;4.70;;;3.60;;
40322;SDS011;26030;51.164;17.100;2023-05-07T19:32:50;7.20;;;3.80;;
40322;SDS011;26030;51.164;17.100;2023-05-07T19:37:57;4.20;;;3.40;;
40322;SDS011;26030;51.164;17.100;2023-05-07T19:43:04;3.40;;;2.70;;
40322;SDS011;26030;51.164;17.100;2023-05-07T19:48:10;3.50;;;3.20;;
40322;SDS011;26030;51.164;17.100;2023-05-07T19:53:18;9.70;;;3.40;;
40322;SDS011;26030;51.164;17.100;2023-05-07T19:58:23;9.60;;;3.70;;
40322;SDS011;26030;51.164;17.100;2023-05-07T20:03:31;6.10;;;3.30;;
40322;SDS011;26030;51.164;17.100;2023-05-07T20:08:36;6.80;;;3.10;;
40322;SDS011;26030;51.164;17.100;2023-05-07T20:13:41;5.30;;;3.30;;
40322;SDS011;26030;51.164;17.100;2023-05-07T20:18:46;3.90;;;3.10;;
40322;SDS011;26030;51.164;17.100;2023-05-07T20:23:51;9.60;;;3.10;;
40322;SDS011;26030;51.164;17.100;2023-05-07T20:28:56;3.40;;;3.10;;
40322;SDS011;26030;51.164;17.100;2023-05-07T20:34:02;3.80;;;3.40;;
40322;SDS011;26030;51.164;17.100;2023-05-07T20:39:07;6.40;;;3.20;;
40322;SDS011;26030;51.164;17.100;2023-05-07T20:44:13;8.70;;;3.00;;
40322;SDS011;26030;51.164;17.100;2023-05-07T20:49:17;7.20;;;2.80;;
40322;SDS011;26030;51.164;17.100;2023-05-07T20:54:24;4.50;;;3.40;;
40322;SDS011;26030;51.164;17.100;2023-05-07T20:59:31;3.60;;;3.20;;
40322;SDS011;26030;51.164;17.100;2023-05-07T21:04:39;6.50;;;3.20;;
40322;SDS011;26030;51.164;17.100;2023-05-07T21:09:43;8.30;;;3.30;;
40322;SDS011;26030;51.164;17.100;2023-05-07T21:14:49;7.60;;;4.00;;
40322;SDS011;26030;51.164;17.100;2023-05-07T21:19:53;8.70;;;3.70;;
40322;SDS011;26030;51.164;17.100;2023-05-07T21:24:59;6.10;;;3.50;;
40322;SDS011;26030;51.164;17.100;2023-05-07T21:30:03;8.60;;;3.80;;
40322;SDS011;26030;51.164;17.100;2023-05-07T21:35:10;4.80;;;3.30;;
40322;SDS011;26030;51.164;17.100;2023-05-07T21:40:14;6.50;;;4.00;;
40322;SDS011;26030;51.164;17.100;2023-05-07T21:45:19;5.40;;;3.30;;
40322;SDS011;26030;51.164;17.100;2023-05-07T21:50:23;4.90;;;3.50;;
40322;SDS011;26030;51.164;17.100;2023-05-07T21:55:27;4.70;;;3.60;;
40322;SDS011;26030;51.164;17.100;2023-05-07T22:00:31;5.10;;;3.70;;
40322;SDS011;26030;51.164;17.100;2023-05-07T22:05:36;5.50;;;2.90;;
40322;SDS011;26030;51.164;17.100;2023-05-07T22:10:40;4.60;;;3.40;;
40322;SDS011;26030;51.164;17.100;2023-05-07T22:15:44;5.10;;;3.10;;
40322;SDS011;26030;51.164;17.100;2023-05-07T22:21:00;6.80;;;3.70;;
40322;SDS011;26030;51.164;17.100;2023-05-07T22:26:12;6.80;;;3.40;;
40322;SDS011;26030;51.164;17.100;2023-05-07T22:31:16;5.70;;;3.10;;
40322;SDS011;26030;51.164;17.100;2023-05-07T22:36:21;4.40;;;3.50;;
40322;SDS011;26030;51.164;17.100;2023-05-07T22:41:25;6.50;;;3.10;;
40322;SDS011;26030;51.164;17.100;2023-05-07T22:46:29;4.90;;;3.20;;
40322;SDS011;26030;51.164;17.100;2023-05-07T22:51:35;4.10;;;3.10;;
40322;SDS011;26030;51.164;17.100;2023-05-07T22:56:39;4.30;;;3.20;;
40322;SDS011;26030;51.164;17.100;2023-05-07T23:01:45;3.50;;;3.00;;
40322;SDS011;26030;51.164;17.100;2023-05-07T23:06:49;4.90;;;3.40;;
40322;SDS011;26030;51.164;17.100;2023-05-07T23:11:53;4.00;;;3.00;;
40322;SDS011;26030;51.164;17.100;2023-05-07T23:16:58;5.00;;;3.10;;
40322;SDS011;26030;51.164;17.100;2023-05-07T23:22:02;3.10;;;2.70;;
40322;SDS011;26030;51.164;17.100;2023-05-07T23:27:07;2.90;;;2.70;;
40322;SDS011;26030;51.164;17.100;2023-05-07T23:32:11;5.70;;;3.40;;
40322;SDS011;26030;51.164;17.100;2023-05-07T23:37:16;4.00;;;3.00;;
40322;SDS011;26030;51.164;17.100;2023-05-07T23:42:20;3.00;;;2.80;;
40322;SDS011;26030;51.164;17.100;2023-05-07T23:47:24;3.60;;;3.20;;
40322;SDS011;26030;51.164;17.100;2023-05-07T23:52:29;3.60;;;3.00;;
40322;SDS011;26030;51.164;17.100;2023-05-07T23:57:33;3.00;;;2.80;;
